Elgin, Texas
Current Conditions -  °F | °C
As of 12:15 PM on Sunday 25 Jan 2015 (Local Time) from KEDC Reporting Station
Clear Clear  
Wind Chill: 64°   Ceiling: Unl
Heat Index: 64°   Visibility: 10mi
Dew Point: 41°   Wind: 14mph
Humidity: 42%   Direction: 360°N
Pressure: 30.1"   Gusts: NA
Location:  30.35°N, 97.37°W
Report Text: KEDC 251815Z AUTO 36012KT 10SM CLR 18/05 A3010 RMK AO2
Loading
Personal Weather Stations






























Interactive Weather Map New forecast layout! Learn more

10-Day Weather Forecast

Advertisements
Track Severe Weather on mobile